createdAt,value
2023-04-26T00:00:16.010Z,49.676000
2023-04-26T00:05:18.351Z,49.976000
2023-04-26T00:10:20.266Z,50.924000
2023-04-26T00:15:22.687Z,51.080000
2023-04-26T00:20:25.214Z,51.176000
2023-04-26T00:25:27.447Z,51.224000
2023-04-26T00:30:29.541Z,51.800000
2023-04-26T00:35:31.544Z,51.092000
2023-04-26T00:40:33.808Z,50.996000
2023-04-26T00:45:15.976Z,50.492000
2023-04-26T00:50:18.375Z,50.312000
2023-04-26T00:55:20.816Z,50.540000
2023-04-26T01:00:23.077Z,49.897143
2023-04-26T01:05:24.938Z,49.880000
2023-04-26T01:10:26.881Z,49.820000
2023-04-26T01:15:28.792Z,49.388000
2023-04-26T01:20:30.956Z,49.004000
2023-04-26T01:25:32.904Z,49.436000
2023-04-26T01:30:34.983Z,49.544000
2023-04-26T01:35:16.731Z,49.484000
2023-04-26T01:40:18.964Z,49.616000
2023-04-26T01:45:21.412Z,49.352000
2023-04-26T01:50:23.298Z,49.331429
2023-04-26T01:55:25.782Z,49.532000
2023-04-26T02:00:27.693Z,49.076000
2023-04-26T02:05:29.954Z,48.452000
2023-04-26T02:10:32.411Z,48.164000
2023-04-26T02:15:34.735Z,47.684000
2023-04-26T02:20:16.450Z,47.024000
2023-04-26T02:25:18.709Z,46.484000
2023-04-26T02:30:20.945Z,45.896000
2023-04-26T02:35:22.677Z,45.435714
2023-04-26T02:40:24.825Z,45.464000
2023-04-26T02:45:26.802Z,45.332000
2023-04-26T02:50:28.585Z,45.392000
2023-04-26T02:55:31.606Z,44.912000
2023-04-26T03:00:33.822Z,44.600000
2023-04-26T03:05:35.605Z,44.600000
2023-04-26T03:10:17.492Z,44.600000
2023-04-26T03:15:19.426Z,44.336000
2023-04-26T03:20:21.552Z,44.540000
2023-04-26T03:25:23.848Z,44.021429
2023-04-26T03:30:26.082Z,43.880000
2023-04-26T03:35:28.453Z,43.508000
2023-04-26T03:40:30.786Z,43.376000
2023-04-26T03:45:33.597Z,43.436000
2023-04-26T03:50:16.034Z,43.340000
2023-04-26T03:55:18.261Z,43.316000
2023-04-26T04:00:20.217Z,43.244000
2023-04-26T04:05:23.397Z,43.250000
2023-04-26T04:10:25.226Z,42.764000
2023-04-26T04:15:27.733Z,42.440000
2023-04-26T04:20:30.395Z,42.224000
2023-04-26T04:25:33.757Z,41.816000
2023-04-26T04:30:15.989Z,41.276000
2023-04-26T04:35:18.493Z,40.928000
2023-04-26T04:40:21.697Z,40.844000
2023-04-26T04:45:24.706Z,40.820000
2023-04-26T04:50:28.565Z,40.820000
2023-04-26T04:55:31.734Z,40.592000
2023-04-26T05:00:34.766Z,40.220000
2023-04-26T05:05:16.950Z,40.100000
2023-04-26T05:10:20.018Z,39.980000
2023-04-26T05:15:23.158Z,39.920000
2023-04-26T05:20:26.006Z,40.028000
2023-04-26T05:25:28.786Z,39.848000
2023-04-26T05:30:31.576Z,39.932000
2023-04-26T05:35:34.171Z,40.208000
2023-04-26T05:40:16.954Z,40.388000
2023-04-26T05:45:20.151Z,40.148000
2023-04-26T05:50:22.760Z,40.460000
2023-04-26T05:55:25.513Z,40.364000
2023-04-26T06:00:28.207Z,40.136000
2023-04-26T06:05:31.421Z,39.980000
2023-04-26T06:10:33.780Z,39.920000
2023-04-26T06:15:16.520Z,39.908000
2023-04-26T06:20:19.585Z,39.584000
2023-04-26T06:25:22.606Z,39.392857
2023-04-26T06:30:24.837Z,39.320000
2023-04-26T06:35:27.091Z,39.500000
2023-04-26T06:40:29.585Z,39.416000
2023-04-26T06:45:32.358Z,39.656000
2023-04-26T06:50:34.601Z,39.344000
2023-04-26T06:55:17.052Z,39.020000
2023-04-26T07:00:20.377Z,39.044000
2023-04-26T07:05:22.447Z,39.200000
2023-04-26T07:10:25.002Z,39.032000
2023-04-26T07:15:29.270Z,39.080000
2023-04-26T07:20:30.919Z,39.176000
2023-04-26T07:25:33.444Z,39.068000
2023-04-26T07:30:16.001Z,38.768000
2023-04-26T07:35:18.466Z,38.408000
2023-04-26T07:40:21.009Z,37.952000
2023-04-26T07:45:23.440Z,37.940000
2023-04-26T07:50:26.086Z,37.916000
2023-04-26T07:55:28.731Z,37.892000
2023-04-26T08:00:31.985Z,37.748000
2023-04-26T08:05:34.290Z,37.472000
2023-04-26T08:10:17.037Z,37.436000
2023-04-26T08:15:20.260Z,37.496000
2023-04-26T08:20:24.529Z,37.747143
2023-04-26T08:25:25.777Z,37.760000
2023-04-26T08:30:28.501Z,37.808000
2023-04-26T08:35:31.165Z,37.940000
2023-04-26T08:40:33.300Z,38.048000
2023-04-26T08:45:17.447Z,37.736000
2023-04-26T08:50:20.433Z,37.736000
2023-04-26T08:55:22.945Z,37.747143
2023-04-26T09:00:26.254Z,37.568000
2023-04-26T09:05:29.450Z,37.400000
2023-04-26T09:10:31.869Z,37.460000
2023-04-26T09:15:34.464Z,37.580000
2023-04-26T09:20:16.729Z,37.580000
2023-04-26T09:25:19.295Z,37.580000
2023-04-26T09:30:21.974Z,37.436000
2023-04-26T09:35:24.454Z,37.400000
2023-04-26T09:40:27.277Z,37.400000
2023-04-26T09:45:30.047Z,37.340000
2023-04-26T09:50:33.373Z,37.220000
2023-04-26T09:55:36.152Z,37.184000
2023-04-26T10:00:18.513Z,36.692000
2023-04-26T10:05:22.098Z,36.410000
2023-04-26T10:10:24.843Z,36.380000
2023-04-26T10:15:27.585Z,36.320000
2023-04-26T10:20:30.341Z,36.188000
2023-04-26T10:25:32.610Z,36.068000
2023-04-26T10:30:35.165Z,35.576000
2023-04-26T10:35:17.419Z,35.828000
2023-04-26T10:40:19.988Z,36.140000
2023-04-26T10:45:22.661Z,35.792857
2023-04-26T10:50:25.202Z,35.432000
2023-04-26T10:55:27.605Z,35.264000
2023-04-26T11:00:32.467Z,35.240000
2023-04-26T11:05:33.706Z,35.576000
2023-04-26T11:10:15.934Z,36.128000
2023-04-26T11:15:18.912Z,36.260000
2023-04-26T11:20:21.728Z,36.296000
2023-04-26T11:25:24.305Z,36.255714
2023-04-26T11:30:26.728Z,36.320000
2023-04-26T11:35:29.659Z,35.948000
2023-04-26T11:40:32.114Z,34.760000
2023-04-26T11:45:34.519Z,34.436000
2023-04-26T11:50:18.208Z,34.028000
2023-04-26T11:55:20.977Z,33.440000
2023-04-26T12:00:24.072Z,33.260000
2023-04-26T12:05:26.733Z,33.440000
2023-04-26T12:10:29.547Z,33.440000
2023-04-26T12:15:31.964Z,33.488000
2023-04-26T12:20:35.639Z,33.956000
2023-04-26T12:25:16.839Z,34.136000
2023-04-26T12:30:20.086Z,34.052000
2023-04-26T12:35:22.593Z,34.648571
2023-04-26T12:40:25.216Z,34.328000
2023-04-26T12:45:27.862Z,34.508000
2023-04-26T12:50:30.726Z,35.012000
2023-04-26T12:55:33.179Z,34.988000
2023-04-26T13:00:36.183Z,35.192000
2023-04-26T13:05:18.056Z,35.276000
2023-04-26T13:10:20.821Z,35.324000
2023-04-26T13:15:23.417Z,36.204286
2023-04-26T13:20:27.800Z,36.836000
2023-04-26T13:25:28.781Z,36.560000
2023-04-26T13:30:30.953Z,36.716000
2023-04-26T13:35:33.628Z,37.184000
2023-04-26T13:40:16.007Z,38.228000
2023-04-26T13:45:19.443Z,39.224000
2023-04-26T13:50:21.558Z,40.064000
2023-04-26T13:55:23.932Z,41.180000
2023-04-26T14:00:26.628Z,40.868000
2023-04-26T14:05:29.026Z,40.424000
2023-04-26T14:10:31.531Z,40.388000
2023-04-26T14:15:33.807Z,40.568000
2023-04-26T14:20:15.873Z,40.856000
2023-04-26T14:25:18.235Z,41.396000
2023-04-26T14:30:20.547Z,41.996000
2023-04-26T14:35:22.657Z,42.607143
2023-04-26T14:40:25.200Z,42.992000
2023-04-26T14:45:40.931Z,43.628000
2023-04-26T14:50:30.641Z,44.108000
2023-04-26T14:55:33.149Z,44.468000
2023-04-26T15:00:35.656Z,44.900000
2023-04-26T15:05:18.288Z,45.248000
2023-04-26T15:10:21.089Z,46.088000
2023-04-26T15:15:23.882Z,46.040000
2023-04-26T15:20:26.300Z,46.520000
2023-04-26T15:25:28.773Z,46.748000
2023-04-26T15:30:30.685Z,47.348000
2023-04-26T15:35:32.912Z,47.396000
2023-04-26T15:40:36.909Z,47.732000
2023-04-26T15:45:17.515Z,48.440000
2023-04-26T15:50:19.899Z,48.764000
2023-04-26T15:55:23.344Z,49.215714
2023-04-26T16:00:25.997Z,48.872000
2023-04-26T16:05:28.551Z,49.280000
2023-04-26T16:10:31.408Z,49.280000
2023-04-26T16:15:33.455Z,49.964000
2023-04-26T16:20:35.952Z,50.372000
2023-04-26T16:25:18.482Z,50.192000
2023-04-26T16:30:21.367Z,51.080000
2023-04-26T16:35:24.134Z,51.735714
2023-04-26T16:40:26.937Z,51.824000
2023-04-26T16:45:29.280Z,51.944000
2023-04-26T16:50:32.535Z,52.484000
2023-04-26T16:55:35.058Z,51.824000
2023-04-26T17:00:17.438Z,52.304000
2023-04-26T17:05:20.452Z,52.040000
2023-04-26T17:10:23.011Z,52.121429
2023-04-26T17:15:25.712Z,52.244000
2023-04-26T17:20:28.493Z,53.084000
2023-04-26T17:25:30.945Z,53.060000
2023-04-26T17:30:33.786Z,53.240000
2023-04-26T17:35:16.684Z,52.784000
2023-04-26T17:40:19.223Z,53.768000
2023-04-26T17:45:21.836Z,54.128000
2023-04-26T17:50:24.107Z,55.361429
2023-04-26T17:55:27.152Z,56.792000
2023-04-26T18:00:29.949Z,56.540000
2023-04-26T18:05:33.142Z,55.520000
2023-04-26T18:10:35.648Z,54.992000
2023-04-26T18:15:18.278Z,54.332000
2023-04-26T18:20:21.021Z,54.812000
2023-04-26T18:25:23.982Z,55.798571
2023-04-26T18:30:27.059Z,56.600000
2023-04-26T18:35:30.005Z,56.024000
2023-04-26T18:40:32.921Z,56.036000
2023-04-26T18:45:36.003Z,56.708000
2023-04-26T18:50:18.184Z,56.828000
2023-04-26T18:55:21.110Z,56.888000
2023-04-26T19:00:24.462Z,56.518571
2023-04-26T19:05:27.398Z,57.236000
2023-04-26T19:10:30.226Z,57.620000
2023-04-26T19:15:32.587Z,57.656000
2023-04-26T19:20:35.617Z,58.004000
2023-04-26T19:25:17.878Z,58.016000
2023-04-26T19:30:21.053Z,57.908000
2023-04-26T19:35:23.697Z,57.765714
2023-04-26T19:40:26.508Z,57.344000
2023-04-26T19:45:29.193Z,57.236000
2023-04-26T19:50:31.584Z,57.584000
2023-04-26T19:55:34.432Z,56.636000
2023-04-26T20:00:16.772Z,57.344000
2023-04-26T20:05:19.474Z,58.484000
2023-04-26T20:10:22.023Z,57.716000
2023-04-26T20:15:24.809Z,57.495714
2023-04-26T20:20:27.389Z,58.280000
2023-04-26T20:25:30.766Z,58.892000
2023-04-26T20:30:33.642Z,58.436000
2023-04-26T20:35:16.039Z,59.480000
2023-04-26T20:40:18.391Z,58.604000
2023-04-26T20:45:21.365Z,58.784000
2023-04-26T20:50:23.982Z,58.974286
2023-04-26T20:55:26.886Z,60.044000
2023-04-26T21:00:29.126Z,59.480000
2023-04-26T21:05:32.946Z,59.696000
2023-04-26T21:10:36.420Z,60.140000
2023-04-26T21:15:18.418Z,60.296000
2023-04-26T21:20:21.927Z,60.956000
2023-04-26T21:25:24.281Z,61.044286
2023-04-26T21:30:26.877Z,60.140000
2023-04-26T21:35:29.354Z,60.860000
2023-04-26T21:40:31.632Z,60.992000
2023-04-26T21:45:34.985Z,60.368000
2023-04-26T21:50:17.408Z,60.848000
2023-04-26T21:55:20.341Z,60.716000
2023-04-26T22:00:22.937Z,61.635714
2023-04-26T22:05:25.385Z,61.556000
2023-04-26T22:10:28.072Z,60.848000
2023-04-26T22:15:30.914Z,60.956000
2023-04-26T22:20:33.558Z,61.604000
2023-04-26T22:25:16.194Z,62.912000
2023-04-26T22:30:25.620Z,63.308000
2023-04-26T22:35:21.703Z,61.976000
2023-04-26T22:40:24.621Z,62.060000
2023-04-26T22:45:27.802Z,61.304000
2023-04-26T22:50:30.329Z,61.688000
2023-04-26T22:55:33.619Z,62.792000
2023-04-26T23:00:16.156Z,62.252000
2023-04-26T23:05:19.110Z,61.388000
2023-04-26T23:10:21.980Z,61.328000
2023-04-26T23:15:24.346Z,61.841429
2023-04-26T23:20:27.145Z,62.132000
2023-04-26T23:25:30.094Z,61.148000
2023-04-26T23:30:32.614Z,61.508000
2023-04-26T23:35:34.578Z,61.856000
2023-04-26T23:40:17.004Z,62.792000
2023-04-26T23:45:19.646Z,62.480000
2023-04-26T23:50:21.887Z,61.796000
2023-04-26T23:55:24.062Z,61.558571
